Time,TemperatureF,DewpointF,PressureIn,WindDirection,WindDirectionDegrees,WindSpeedMPH,WindSpeedGustMPH,Humidity,HourlyPrecipIn,Conditions,Clouds,dailyrainin,SolarRadiationWatts/m^2,SoftwareType,DateUTC
2013-06-07 00:00:00,57.7,50.2,29.89,SSE,162,0.0,3.0,76,0.00,,,0.00,0001,Weather View 32 v70,2013-06-07 07:00:00,
2013-06-07 00:05:00,57.6,50.4,29.89,SW,229,0.0,3.0,77,0.00,,,0.00,0001,Weather View 32 v70,2013-06-07 07:05:00,
2013-06-07 00:15:00,57.5,50.3,29.89,SSE,162,0.0,1.0,77,0.00,,,0.00,0002,Weather View 32 v70,2013-06-07 07:15:00,
2013-06-07 00:20:00,57.4,50.2,29.89,SSE,162,0.0,0.0,77,0.00,,,0.00,0002,Weather View 32 v70,2013-06-07 07:20:00,
2013-06-07 00:25:00,57.2,50.0,29.88,SE,139,0.0,0.0,77,0.00,,,0.00,0001,Weather View 32 v70,2013-06-07 07:25:00,
2013-06-07 00:30:00,56.8,50.0,29.89,SE,139,0.0,0.0,78,0.00,,,0.00,0002,Weather View 32 v70,2013-06-07 07:30:00,
2013-06-07 00:35:00,56.6,50.1,29.89,South,184,0.0,0.0,79,0.00,,,0.00,0001,Weather View 32 v70,2013-06-07 07:35:00,
2013-06-07 00:45:00,56.6,50.1,29.89,SSE,162,0.0,0.0,79,0.00,,,0.00,0001,Weather View 32 v70,2013-06-07 07:45:00,
2013-06-07 00:50:00,56.6,50.1,29.89,SSE,162,0.0,0.0,79,0.00,,,0.00,0001,Weather View 32 v70,2013-06-07 07:50:00,
2013-06-07 00:55:00,56.5,50.4,29.89,SSE,162,0.0,0.0,80,0.00,,,0.00,0001,Weather View 32 v70,2013-06-07 07:55:00,
2013-06-07 01:00:00,56.4,50.3,29.88,ESE,117,0.0,0.0,80,0.00,,,0.00,0001,Weather View 32 v70,2013-06-07 08:00:00,
2013-06-07 01:05:00,56.2,50.1,29.89,SSW,207,0.0,0.0,80,0.00,,,0.00,0002,Weather View 32 v70,2013-06-07 08:05:00,
2013-06-07 01:15:00,56.0,50.2,29.89,SSW,207,0.0,0.0,81,0.00,,,0.00,0002,Weather View 32 v70,2013-06-07 08:15:00,
2013-06-07 01:20:00,56.0,50.2,29.89,SSE,162,0.0,0.0,81,0.00,,,0.00,0001,Weather View 32 v70,2013-06-07 08:20:00,
2013-06-07 01:25:00,55.7,49.9,29.89,South,184,0.0,0.0,81,0.00,,,0.00,0001,Weather View 32 v70,2013-06-07 08:25:00,
2013-06-07 01:30:00,55.5,49.8,29.89,South,184,0.0,0.0,81,0.00,,,0.00,0002,Weather View 32 v70,2013-06-07 08:30:00,
2013-06-07 01:40:00,55.3,49.9,29.89,SSE,162,0.0,0.0,82,0.00,,,0.00,0001,Weather View 32 v70,2013-06-07 08:40:00,
2013-06-07 01:45:00,55.3,50.2,29.89,SW,229,0.0,0.0,83,0.00,,,0.00,0001,Weather View 32 v70,2013-06-07 08:45:00,
2013-06-07 01:50:00,55.3,50.2,29.89,South,184,0.0,0.0,83,0.00,,,0.00,0001,Weather View 32 v70,2013-06-07 08:50:00,
2013-06-07 01:55:00,55.2,50.1,29.89,South,184,0.0,0.0,83,0.00,,,0.00,0002,Weather View 32 v70,2013-06-07 08:55:00,
2013-06-07 02:00:00,55.1,50.0,29.89,SSE,162,0.0,0.0,83,0.00,,,0.00,0002,Weather View 32 v70,2013-06-07 09:00:00,
2013-06-07 02:10:00,54.9,50.1,29.89,SSW,207,0.0,0.0,84,0.00,,,0.00,0001,Weather View 32 v70,2013-06-07 09:10:00,
2013-06-07 02:15:00,54.8,50.0,29.89,South,184,0.0,0.0,84,0.00,,,0.00,0002,Weather View 32 v70,2013-06-07 09:15:00,
2013-06-07 02:20:00,54.8,50.0,29.89,South,184,0.0,0.0,84,0.00,,,0.00,0001,Weather View 32 v70,2013-06-07 09:20:00,
2013-06-07 02:30:00,54.6,49.9,29.89,South,184,0.0,0.0,84,0.00,,,0.00,0001,Weather View 32 v70,2013-06-07 09:30:00,
2013-06-07 02:35:00,54.4,49.7,29.89,South,184,0.0,0.0,84,0.00,,,0.00,0002,Weather View 32 v70,2013-06-07 09:35:00,
2013-06-07 02:40:00,54.3,49.9,29.89,SSW,207,0.0,0.0,85,0.00,,,0.00,0001,Weather View 32 v70,2013-06-07 09:40:00,
2013-06-07 02:45:00,54.2,49.8,29.88,South,184,0.0,0.0,85,0.00,,,0.00,0002,Weather View 32 v70,2013-06-07 09:45:00,
2013-06-07 02:51:00,54.3,49.9,29.88,SSE,162,0.0,0.0,85,0.00,,,0.00,0002,Weather View 32 v70,2013-06-07 09:51:00,
2013-06-07 03:00:00,54.0,49.9,29.88,SW,229,0.0,0.0,86,0.00,,,0.00,0001,Weather View 32 v70,2013-06-07 10:00:00,
2013-06-07 03:05:00,54.1,50.0,29.88,SSE,162,0.0,0.0,86,0.00,,,0.00,0002,Weather View 32 v70,2013-06-07 10:05:00,
2013-06-07 03:10:00,54.0,49.9,29.88,South,184,0.0,0.0,86,0.00,,,0.00,0001,Weather View 32 v70,2013-06-07 10:10:00,
2013-06-07 03:15:00,53.9,49.8,29.88,SW,229,0.0,0.0,86,0.00,,,0.00,0001,Weather View 32 v70,2013-06-07 10:15:00,
2013-06-07 03:25:00,53.9,50.1,29.88,SSE,162,0.0,0.0,87,0.00,,,0.00,0002,Weather View 32 v70,2013-06-07 10:25:00,
2013-06-07 03:30:00,53.8,50.0,29.88,SSW,207,0.0,0.0,87,0.00,,,0.00,0001,Weather View 32 v70,2013-06-07 10:30:00,
2013-06-07 03:35:00,53.7,49.9,29.88,SSW,207,0.0,0.0,87,0.00,,,0.00,0002,Weather View 32 v70,2013-06-07 10:35:00,
2013-06-07 03:40:00,53.5,49.7,29.88,South,184,0.0,0.0,87,0.00,,,0.00,0001,Weather View 32 v70,2013-06-07 10:40:00,
2013-06-07 03:45:00,53.5,49.7,29.88,South,184,0.0,0.0,87,0.00,,,0.00,0001,Weather View 32 v70,2013-06-07 10:45:00,
2013-06-07 03:52:00,53.4,49.6,29.88,SSW,207,0.0,0.0,87,0.00,,,0.00,0002,Weather View 32 v70,2013-06-07 10:52:00,
2013-06-07 04:00:00,53.2,49.7,29.88,South,184,0.0,0.0,88,0.00,,,0.00,0002,Weather View 32 v70,2013-06-07 11:00:00,
2013-06-07 04:05:00,53.2,49.7,29.88,SSW,207,0.0,0.0,88,0.00,,,0.00,0001,Weather View 32 v70,2013-06-07 11:05:00,
2013-06-07 04:10:00,53.2,49.7,29.88,South,184,0.0,0.0,88,0.00,,,0.00,0001,Weather View 32 v70,2013-06-07 11:10:00,
2013-06-07 04:20:00,53.2,50.0,29.88,West,274,0.0,0.0,89,0.00,,,0.00,0001,Weather View 32 v70,2013-06-07 11:20:00,
2013-06-07 04:25:00,53.3,50.1,29.88,SSE,162,0.0,0.0,89,0.00,,,0.00,0001,Weather View 32 v70,2013-06-07 11:25:00,
2013-06-07 04:30:00,53.2,49.7,29.88,South,184,0.0,0.0,88,0.00,,,0.00,0002,Weather View 32 v70,2013-06-07 11:30:00,
2013-06-07 04:35:00,53.1,49.6,29.88,SSW,207,0.0,0.0,88,0.00,,,0.00,0001,Weather View 32 v70,2013-06-07 11:35:00,
2013-06-07 04:40:00,53.0,49.8,29.88,WSW,252,0.0,0.0,89,0.00,,,0.00,0001,Weather View 32 v70,2013-06-07 11:40:00,
2013-06-07 04:50:00,53.0,49.8,29.88,SSW,207,0.0,0.0,89,0.00,,,0.00,0002,Weather View 32 v70,2013-06-07 11:50:00,
2013-06-07 04:55:00,52.9,49.7,29.88,South,184,0.0,0.0,89,0.00,,,0.00,0001,Weather View 32 v70,2013-06-07 11:55:00,
2013-06-07 05:00:00,52.9,50.0,29.88,WSW,252,0.0,0.0,90,0.00,,,0.00,0002,Weather View 32 v70,2013-06-07 12:00:00,
2013-06-07 05:05:00,52.9,50.0,29.88,South,184,0.0,0.0,90,0.00,,,0.00,0001,Weather View 32 v70,2013-06-07 12:05:00,
2013-06-07 05:10:00,52.9,50.0,29.88,SSW,207,0.0,0.0,90,0.00,,,0.00,0001,Weather View 32 v70,2013-06-07 12:10:00,
2013-06-07 05:20:00,52.8,49.9,29.88,SW,229,0.0,0.0,90,0.00,,,0.00,0002,Weather View 32 v70,2013-06-07 12:20:00,
2013-06-07 05:25:00,52.8,49.9,29.88,SW,229,0.0,0.0,90,0.00,,,0.00,0002,Weather View 32 v70,2013-06-07 12:25:00,
2013-06-07 05:30:00,52.8,49.9,29.88,South,184,0.0,0.0,90,0.00,,,0.00,0002,Weather View 32 v70,2013-06-07 12:30:00,
2013-06-07 05:35:00,52.7,49.8,29.88,South,184,0.0,0.0,90,0.00,,,0.00,0003,Weather View 32 v70,2013-06-07 12:35:00,
2013-06-07 05:40:00,52.6,49.7,29.88,SSW,207,0.0,0.0,90,0.00,,,0.00,0004,Weather View 32 v70,2013-06-07 12:40:00,
2013-06-07 05:45:00,52.5,49.6,29.88,South,184,0.0,0.0,90,0.00,,,0.00,0006,Weather View 32 v70,2013-06-07 12:45:00,
2013-06-07 05:53:00,52.5,49.9,29.88,SSW,207,0.0,0.0,91,0.00,,,0.00,0008,Weather View 32 v70,2013-06-07 12:53:00,
2013-06-07 06:00:00,52.7,50.1,29.88,SE,139,0.0,0.0,91,0.00,,,0.00,0014,Weather View 32 v70,2013-06-07 13:00:00,
2013-06-07 06:05:00,52.9,50.3,29.88,West,274,0.0,0.0,91,0.00,,,0.00,0019,Weather View 32 v70,2013-06-07 13:05:00,
2013-06-07 06:10:00,53.0,50.4,29.89,West,274,0.0,0.0,91,0.00,,,0.00,0023,Weather View 32 v70,2013-06-07 13:10:00,
2013-06-07 06:15:00,53.3,50.7,29.89,WSW,252,0.0,0.0,91,0.00,,,0.00,0028,Weather View 32 v70,2013-06-07 13:15:00,
2013-06-07 06:25:00,53.5,50.6,29.89,SSW,207,0.0,0.0,90,0.00,,,0.00,0041,Weather View 32 v70,2013-06-07 13:25:00,
2013-06-07 06:30:00,53.5,50.6,29.89,SSW,207,0.0,0.0,90,0.00,,,0.00,0040,Weather View 32 v70,2013-06-07 13:30:00,
2013-06-07 06:35:00,53.6,50.7,29.89,SSW,207,0.0,0.0,90,0.00,,,0.00,0048,Weather View 32 v70,2013-06-07 13:35:00,
2013-06-07 06:45:00,53.8,50.9,29.89,WSW,252,0.0,0.0,90,0.00,,,0.00,0074,Weather View 32 v70,2013-06-07 13:45:00,
2013-06-07 06:50:00,54.0,51.1,29.89,South,184,0.0,0.0,90,0.00,,,0.00,0095,Weather View 32 v70,2013-06-07 13:50:00,
2013-06-07 06:55:00,54.4,51.5,29.89,SSE,162,0.0,0.0,90,0.00,,,0.00,0139,Weather View 32 v70,2013-06-07 13:55:00,
2013-06-07 07:00:00,54.9,52.0,29.89,SSE,162,0.0,0.0,90,0.00,,,0.00,0169,Weather View 32 v70,2013-06-07 14:00:00,
2013-06-07 07:05:00,55.3,52.1,29.89,SE,139,0.0,0.0,89,0.00,,,0.00,0152,Weather View 32 v70,2013-06-07 14:05:00,
2013-06-07 07:15:00,56.1,52.6,29.89,ESE,117,1.0,3.0,88,0.00,,,0.00,0224,Weather View 32 v70,2013-06-07 14:15:00,
2013-06-07 07:20:00,56.5,52.7,29.89,East,94,1.0,3.0,87,0.00,,,0.00,0225,Weather View 32 v70,2013-06-07 14:20:00,
2013-06-07 07:25:00,57.1,52.9,29.89,ESE,117,3.0,3.0,86,0.00,,,0.00,0257,Weather View 32 v70,2013-06-07 14:25:00,
2013-06-07 07:30:00,57.5,53.0,29.89,SE,139,1.0,4.0,85,0.00,,,0.00,0264,Weather View 32 v70,2013-06-07 14:30:00,
2013-06-07 07:40:00,58.2,53.0,29.89,ENE,72,2.0,4.0,83,0.00,,,0.00,0287,Weather View 32 v70,2013-06-07 14:40:00,
2013-06-07 07:45:00,58.7,53.2,29.89,NE,49,3.0,4.0,82,0.00,,,0.00,0302,Weather View 32 v70,2013-06-07 14:45:00,
2013-06-07 07:50:00,58.8,53.0,29.89,SSE,162,1.0,4.0,81,0.00,,,0.00,0310,Weather View 32 v70,2013-06-07 14:50:00,
2013-06-07 07:55:00,58.8,52.6,29.89,ESE,117,3.0,4.0,80,0.00,,,0.00,0324,Weather View 32 v70,2013-06-07 14:55:00,
2013-06-07 08:05:00,60.0,53.5,29.89,ENE,72,3.0,4.0,79,0.00,,,0.00,0348,Weather View 32 v70,2013-06-07 15:05:00,
2013-06-07 08:10:00,60.3,53.7,29.89,East,94,3.0,4.0,79,0.00,,,0.00,0359,Weather View 32 v70,2013-06-07 15:10:00,
2013-06-07 08:15:00,60.2,53.3,29.89,ESE,117,3.0,4.0,78,0.00,,,0.00,0374,Weather View 32 v70,2013-06-07 15:15:00,
2013-06-07 08:20:00,60.5,53.6,29.89,NNE,27,3.0,4.0,78,0.00,,,0.00,0385,Weather View 32 v70,2013-06-07 15:20:00,
2013-06-07 08:25:00,61.2,53.9,29.89,East,94,0.0,4.0,77,0.00,,,0.00,0395,Weather View 32 v70,2013-06-07 15:25:00,
2013-06-07 08:35:00,61.8,53.8,29.89,East,94,3.0,4.0,75,0.00,,,0.00,0421,Weather View 32 v70,2013-06-07 15:35:00,
2013-06-07 08:40:00,62.2,54.2,29.89,SE,139,1.0,4.0,75,0.00,,,0.00,0434,Weather View 32 v70,2013-06-07 15:40:00,
2013-06-07 08:45:00,63.0,54.6,29.89,SE,139,3.0,4.0,74,0.00,,,0.00,0447,Weather View 32 v70,2013-06-07 15:45:00,
2013-06-07 08:50:00,62.7,53.9,29.88,SE,139,1.0,4.0,73,0.00,,,0.00,0458,Weather View 32 v70,2013-06-07 15:50:00,
2013-06-07 08:55:00,63.4,54.2,29.89,SE,139,1.0,4.0,72,0.00,,,0.00,0472,Weather View 32 v70,2013-06-07 15:55:00,
2013-06-07 09:05:00,64.0,54.0,29.89,ESE,117,1.0,5.0,70,0.00,,,0.00,0496,Weather View 32 v70,2013-06-07 16:05:00,
2013-06-07 09:10:00,64.7,54.7,29.89,NNW,342,3.0,5.0,70,0.00,,,0.00,0509,Weather View 32 v70,2013-06-07 16:10:00,
2013-06-07 09:15:00,65.3,54.8,29.89,NNE,27,3.0,5.0,69,0.00,,,0.00,0521,Weather View 32 v70,2013-06-07 16:15:00,
2013-06-07 09:20:00,65.7,54.8,29.88,NE,49,1.0,5.0,68,0.00,,,0.00,0534,Weather View 32 v70,2013-06-07 16:20:00,
2013-06-07 09:25:00,65.9,54.6,29.88,NE,49,1.0,5.0,67,0.00,,,0.00,0547,Weather View 32 v70,2013-06-07 16:25:00,
2013-06-07 09:35:00,66.1,54.4,29.88,North,4,3.0,6.0,66,0.00,,,0.00,0572,Weather View 32 v70,2013-06-07 16:35:00,
2013-06-07 09:40:00,66.8,55.0,29.88,NE,49,1.0,6.0,66,0.00,,,0.00,0584,Weather View 32 v70,2013-06-07 16:40:00,
2013-06-07 09:45:00,67.3,55.1,29.88,South,184,1.0,6.0,65,0.00,,,0.00,0598,Weather View 32 v70,2013-06-07 16:45:00,
2013-06-07 09:50:00,67.7,55.0,29.88,SE,139,1.0,6.0,64,0.00,,,0.00,0611,Weather View 32 v70,2013-06-07 16:50:00,
2013-06-07 09:55:00,68.0,55.3,29.88,ESE,117,3.0,6.0,64,0.00,,,0.00,0622,Weather View 32 v70,2013-06-07 16:55:00,
2013-06-07 10:05:00,69.4,55.8,29.87,NW,319,1.0,6.0,62,0.00,,,0.00,0644,Weather View 32 v70,2013-06-07 17:05:00,
2013-06-07 10:10:00,70.4,56.7,29.87,East,94,1.0,6.0,62,0.00,,,0.00,0658,Weather View 32 v70,2013-06-07 17:10:00,
2013-06-07 10:15:00,70.1,55.5,29.87,ESE,117,3.0,6.0,60,0.00,,,0.00,0668,Weather View 32 v70,2013-06-07 17:15:00,
2013-06-07 10:20:00,70.7,56.1,29.87,NE,49,3.0,6.0,60,0.00,,,0.00,0680,Weather View 32 v70,2013-06-07 17:20:00,
2013-06-07 10:30:00,71.8,56.7,29.87,ESE,117,3.0,6.0,59,0.00,,,0.00,0700,Weather View 32 v70,2013-06-07 17:30:00,
2013-06-07 10:40:00,73.0,56.8,29.87,West,274,3.0,6.0,57,0.00,,,0.00,0717,Weather View 32 v70,2013-06-07 17:40:00,
2013-06-07 10:45:00,73.8,57.6,29.87,NNE,27,3.0,6.0,57,0.00,,,0.00,0726,Weather View 32 v70,2013-06-07 17:45:00,
2013-06-07 10:50:00,74.8,58.0,29.87,ESE,117,2.0,6.0,56,0.00,,,0.00,0733,Weather View 32 v70,2013-06-07 17:50:00,
2013-06-07 10:56:00,75.9,58.5,29.86,SE,139,1.0,6.0,55,0.00,,,0.00,0742,Weather View 32 v70,2013-06-07 17:56:00,
2013-06-07 11:05:00,76.8,57.8,29.86,SSW,207,2.0,6.0,52,0.00,,,0.00,0754,Weather View 32 v70,2013-06-07 18:05:00,
2013-06-07 11:15:00,78.3,59.2,29.86,NE,49,2.0,6.0,52,0.00,,,0.00,0768,Weather View 32 v70,2013-06-07 18:15:00,
2013-06-07 11:25:00,80.3,59.3,29.85,ESE,117,2.0,5.0,49,0.00,,,0.00,0778,Weather View 32 v70,2013-06-07 18:25:00,
2013-06-07 11:35:00,80.9,58.7,29.85,SE,139,1.0,5.0,47,0.00,,,0.00,0790,Weather View 32 v70,2013-06-07 18:35:00,
2013-06-07 11:40:00,81.7,59.4,29.85,East,94,2.0,6.0,47,0.00,,,0.00,0795,Weather View 32 v70,2013-06-07 18:40:00,
2013-06-07 11:45:00,81.9,58.4,29.85,SE,139,1.0,6.0,45,0.00,,,0.00,0798,Weather View 32 v70,2013-06-07 18:45:00,
2013-06-07 11:50:00,82.2,57.4,29.85,ESE,117,3.0,7.0,43,0.00,,,0.00,0804,Weather View 32 v70,2013-06-07 18:50:00,
2013-06-07 11:57:00,83.2,58.3,29.84,SSE,162,4.0,7.0,43,0.00,,,0.00,0810,Weather View 32 v70,2013-06-07 18:57:00,
2013-06-07 12:05:00,84.3,58.6,29.84,NE,49,3.0,7.0,42,0.00,,,0.00,0819,Weather View 32 v70,2013-06-07 19:05:00,
2013-06-07 12:10:00,84.8,58.4,29.84,WSW,252,1.0,7.0,41,0.00,,,0.00,0824,Weather View 32 v70,2013-06-07 19:10:00,
2013-06-07 12:15:00,85.7,59.2,29.84,West,274,2.0,7.0,41,0.00,,,0.00,0830,Weather View 32 v70,2013-06-07 19:15:00,
2013-06-07 12:20:00,86.7,60.1,29.84,ESE,117,1.0,7.0,41,0.00,,,0.00,0835,Weather View 32 v70,2013-06-07 19:20:00,
2013-06-07 12:30:00,87.1,59.8,29.84,WNW,297,1.0,7.0,40,0.00,,,0.00,0847,Weather View 32 v70,2013-06-07 19:30:00,
2013-06-07 12:35:00,87.4,59.3,29.83,ESE,117,3.0,7.0,39,0.00,,,0.00,0852,Weather View 32 v70,2013-06-07 19:35:00,
2013-06-07 12:40:00,88.2,60.0,29.83,NE,49,4.0,7.0,39,0.00,,,0.00,0856,Weather View 32 v70,2013-06-07 19:40:00,
2013-06-07 12:45:00,88.5,59.6,29.83,NE,49,3.0,7.0,38,0.00,,,0.00,0861,Weather View 32 v70,2013-06-07 19:45:00,
2013-06-07 12:55:00,89.6,59.8,29.83,ESE,117,1.0,6.0,37,0.00,,,0.00,0871,Weather View 32 v70,2013-06-07 19:55:00,
2013-06-07 13:00:00,90.5,59.8,29.82,ENE,72,2.0,6.0,36,0.00,,,0.00,0872,Weather View 32 v70,2013-06-07 20:00:00,
2013-06-07 13:05:00,90.2,59.5,29.82,East,94,2.0,6.0,36,0.00,,,0.00,0875,Weather View 32 v70,2013-06-07 20:05:00,
2013-06-07 13:10:00,90.5,59.0,29.82,South,184,1.0,6.0,35,0.00,,,0.00,0878,Weather View 32 v70,2013-06-07 20:10:00,
2013-06-07 13:15:00,91.0,59.4,29.82,East,94,1.0,6.0,35,0.00,,,0.00,0873,Weather View 32 v70,2013-06-07 20:15:00,
2013-06-07 13:20:00,91.5,59.9,29.81,SSW,207,4.0,6.0,35,0.00,,,0.00,0879,Weather View 32 v70,2013-06-07 20:20:00,
2013-06-07 13:35:00,91.4,58.1,29.81,ESE,117,3.0,8.0,33,0.00,,,0.00,0873,Weather View 32 v70,2013-06-07 20:35:00,
2013-06-07 13:40:00,92.1,58.7,29.81,South,184,3.0,8.0,33,0.00,,,0.00,0873,Weather View 32 v70,2013-06-07 20:40:00,
2013-06-07 13:45:00,91.7,58.4,29.80,SE,139,4.0,8.0,33,0.00,,,0.00,0870,Weather View 32 v70,2013-06-07 20:45:00,
2013-06-07 13:50:00,92.5,59.1,29.80,West,274,1.0,8.0,33,0.00,,,0.00,0864,Weather View 32 v70,2013-06-07 20:50:00,
2013-06-07 13:58:00,93.0,59.5,29.80,SE,139,3.0,8.0,33,0.00,,,0.00,0860,Weather View 32 v70,2013-06-07 20:58:00,
2013-06-07 14:05:00,93.0,58.7,29.80,ESE,117,4.0,8.0,32,0.00,,,0.00,0846,Weather View 32 v70,2013-06-07 21:05:00,
2013-06-07 14:15:00,94.2,59.7,29.79,East,94,1.0,8.0,32,0.00,,,0.00,0834,Weather View 32 v70,2013-06-07 21:15:00,
2013-06-07 14:20:00,94.9,59.4,29.79,SW,229,3.0,8.0,31,0.00,,,0.00,0829,Weather View 32 v70,2013-06-07 21:20:00,
2013-06-07 14:30:00,96.1,59.5,29.79,NW,319,4.0,8.0,30,0.00,,,0.00,0814,Weather View 32 v70,2013-06-07 21:30:00,
2013-06-07 14:35:00,95.9,58.4,29.78,NNE,27,1.0,7.0,29,0.00,,,0.00,0804,Weather View 32 v70,2013-06-07 21:35:00,
2013-06-07 14:40:00,96.1,58.6,29.78,NW,319,4.0,7.0,29,0.00,,,0.00,0795,Weather View 32 v70,2013-06-07 21:40:00,
2013-06-07 14:45:00,96.1,58.6,29.78,NNW,342,2.0,7.0,29,0.00,,,0.00,0783,Weather View 32 v70,2013-06-07 21:45:00,
2013-06-07 14:50:00,96.6,60.0,29.78,NNE,27,1.0,7.0,30,0.00,,,0.00,0776,Weather View 32 v70,2013-06-07 21:50:00,
2013-06-07 14:59:00,96.3,58.7,29.77,West,274,5.0,9.0,29,0.00,,,0.00,0767,Weather View 32 v70,2013-06-07 21:59:00,
2013-06-07 15:05:00,96.4,59.8,29.77,NNE,27,1.0,9.0,30,0.00,,,0.00,0749,Weather View 32 v70,2013-06-07 22:05:00,
2013-06-07 15:10:00,96.3,58.7,29.77,NE,49,3.0,9.0,29,0.00,,,0.00,0740,Weather View 32 v70,2013-06-07 22:10:00,
2013-06-07 15:25:00,96.9,59.3,29.77,NW,319,7.0,11.0,29,0.00,,,0.00,0718,Weather View 32 v70,2013-06-07 22:25:00,
2013-06-07 15:30:00,96.8,59.2,29.77,NW,319,4.0,11.0,29,0.00,,,0.00,0711,Weather View 32 v70,2013-06-07 22:30:00,
2013-06-07 15:35:00,97.0,58.4,29.77,NW,319,4.0,11.0,28,0.00,,,0.00,0706,Weather View 32 v70,2013-06-07 22:35:00,
2013-06-07 15:45:00,97.5,58.8,29.77,NE,49,4.0,11.0,28,0.00,,,0.00,0695,Weather View 32 v70,2013-06-07 22:45:00,
2013-06-07 16:05:00,97.8,57.0,29.76,West,274,6.0,11.0,26,0.00,,,0.00,0664,Weather View 32 v70,2013-06-07 23:05:00,
2013-06-07 16:10:00,98.2,57.3,29.76,North,4,4.0,11.0,26,0.00,,,0.00,0654,Weather View 32 v70,2013-06-07 23:10:00,
2013-06-07 16:20:00,98.7,56.6,29.76,NNW,342,8.0,11.0,25,0.00,,,0.00,0638,Weather View 32 v70,2013-06-07 23:20:00,
2013-06-07 16:35:00,98.5,56.5,29.75,NW,319,4.0,11.0,25,0.00,,,0.00,0607,Weather View 32 v70,2013-06-07 23:35:00,
2013-06-07 16:45:00,98.6,56.5,29.74,NNW,342,5.0,11.0,25,0.00,,,0.00,0586,Weather View 32 v70,2013-06-07 23:45:00,
2013-06-07 16:50:00,98.9,56.8,29.74,WNW,297,4.0,11.0,25,0.00,,,0.00,0573,Weather View 32 v70,2013-06-07 23:50:00,
2013-06-07 17:00:00,98.3,55.2,29.74,WNW,297,7.0,11.0,24,0.00,,,0.00,0549,Weather View 32 v70,2013-06-08 00:00:00,
2013-06-07 17:10:00,98.1,57.2,29.74,WSW,252,4.0,11.0,26,0.00,,,0.00,0525,Weather View 32 v70,2013-06-08 00:10:00,
2013-06-07 17:15:00,97.4,57.7,29.74,West,274,12.0,12.0,27,0.00,,,0.00,0511,Weather View 32 v70,2013-06-08 00:15:00,
2013-06-07 17:20:00,96.8,58.2,29.74,SW,229,9.0,12.0,28,0.00,,,0.00,0499,Weather View 32 v70,2013-06-08 00:20:00,
2013-06-07 17:35:00,95.8,58.3,29.74,SSW,207,9.0,13.0,29,0.00,,,0.00,0459,Weather View 32 v70,2013-06-08 00:35:00,
2013-06-07 17:40:00,95.8,58.3,29.74,WSW,252,3.0,13.0,29,0.00,,,0.00,0448,Weather View 32 v70,2013-06-08 00:40:00,
2013-06-07 17:45:00,95.9,58.4,29.74,NNE,27,5.0,13.0,29,0.00,,,0.00,0435,Weather View 32 v70,2013-06-08 00:45:00,
2013-06-07 17:55:00,95.7,59.2,29.73,WNW,297,4.0,15.0,30,0.00,,,0.00,0409,Weather View 32 v70,2013-06-08 00:55:00,
2013-06-07 18:00:00,95.5,59.0,29.73,WSW,252,6.0,15.0,30,0.00,,,0.00,0397,Weather View 32 v70,2013-06-08 01:00:00,
2013-06-07 18:05:00,95.3,58.8,29.73,WSW,252,6.0,15.0,30,0.00,,,0.00,0386,Weather View 32 v70,2013-06-08 01:05:00,
2013-06-07 18:15:00,95.3,58.8,29.73,SSW,207,6.0,15.0,30,0.00,,,0.00,0359,Weather View 32 v70,2013-06-08 01:15:00,
2013-06-07 18:25:00,95.2,57.8,29.73,West,274,5.0,15.0,29,0.00,,,0.00,0334,Weather View 32 v70,2013-06-08 01:25:00,
2013-06-07 18:30:00,94.6,57.3,29.73,WNW,297,7.0,15.0,29,0.00,,,0.00,0208,Weather View 32 v70,2013-06-08 01:30:00,
2013-06-07 18:40:00,93.5,56.3,29.73,WSW,252,6.0,16.0,29,0.00,,,0.00,0300,Weather View 32 v70,2013-06-08 01:40:00,
2013-06-07 18:45:00,92.9,55.8,29.73,West,274,7.0,16.0,29,0.00,,,0.00,0287,Weather View 32 v70,2013-06-08 01:45:00,
2013-06-07 18:50:00,92.7,56.6,29.73,SSW,207,6.0,17.0,30,0.00,,,0.00,0273,Weather View 32 v70,2013-06-08 01:50:00,
2013-06-07 19:00:00,92.0,56.0,29.73,SW,229,6.0,17.0,30,0.00,,,0.00,0248,Weather View 32 v70,2013-06-08 02:00:00,
2013-06-07 19:05:00,92.1,56.1,29.73,West,274,3.0,17.0,30,0.00,,,0.00,0236,Weather View 32 v70,2013-06-08 02:05:00,
2013-06-07 19:10:00,92.3,56.3,29.73,West,274,2.0,17.0,30,0.00,,,0.00,0222,Weather View 32 v70,2013-06-08 02:10:00,
2013-06-07 19:15:00,92.4,56.3,29.73,North,4,2.0,17.0,30,0.00,,,0.00,0209,Weather View 32 v70,2013-06-08 02:15:00,
2013-06-07 19:20:00,92.0,56.0,29.73,SSW,207,4.0,17.0,30,0.00,,,0.00,0196,Weather View 32 v70,2013-06-08 02:20:00,
2013-06-07 19:30:00,91.6,55.7,29.74,NNE,27,0.0,17.0,30,0.00,,,0.00,0167,Weather View 32 v70,2013-06-08 02:30:00,
2013-06-07 19:35:00,91.3,55.4,29.74,South,184,3.0,17.0,30,0.00,,,0.00,0092,Weather View 32 v70,2013-06-08 02:35:00,
2013-06-07 19:40:00,90.8,55.0,29.74,East,94,0.0,17.0,30,0.00,,,0.00,0025,Weather View 32 v70,2013-06-08 02:40:00,
2013-06-07 19:45:00,90.3,55.5,29.74,SSE,162,0.0,17.0,31,0.00,,,0.00,0023,Weather View 32 v70,2013-06-08 02:45:00,
2013-06-07 19:50:00,89.7,54.9,29.74,SSE,162,3.0,15.0,31,0.00,,,0.00,0021,Weather View 32 v70,2013-06-08 02:50:00,
2013-06-07 19:55:00,89.3,56.3,29.74,South,184,1.0,14.0,33,0.00,,,0.00,0020,Weather View 32 v70,2013-06-08 02:55:00,
2013-06-07 20:05:00,88.1,56.9,29.73,ESE,117,6.0,12.0,35,0.00,,,0.00,0016,Weather View 32 v70,2013-06-08 03:05:00,
2013-06-07 20:10:00,87.4,57.1,29.73,SSE,162,3.0,12.0,36,0.00,,,0.00,0014,Weather View 32 v70,2013-06-08 03:10:00,
2013-06-07 20:15:00,86.7,57.2,29.74,SE,139,2.0,12.0,37,0.00,,,0.00,0012,Weather View 32 v70,2013-06-08 03:15:00,
2013-06-07 20:20:00,85.9,57.3,29.74,SSE,162,4.0,12.0,38,0.00,,,0.00,0010,Weather View 32 v70,2013-06-08 03:20:00,
2013-06-07 20:25:00,85.2,57.4,29.74,SSW,207,2.0,12.0,39,0.00,,,0.00,0007,Weather View 32 v70,2013-06-08 03:25:00,
2013-06-07 20:30:00,84.9,57.1,29.74,SE,139,0.0,7.0,39,0.00,,,0.00,0005,Weather View 32 v70,2013-06-08 03:30:00,
2013-06-07 20:40:00,83.7,57.4,29.74,ESE,117,1.0,7.0,41,0.00,,,0.00,0003,Weather View 32 v70,2013-06-08 03:40:00,
2013-06-07 20:55:00,81.9,57.1,29.75,SSW,207,0.0,7.0,43,0.00,,,0.00,0002,Weather View 32 v70,2013-06-08 03:55:00,
2013-06-07 21:00:00,81.0,55.7,29.75,SSE,162,0.0,7.0,42,0.00,,,0.00,0002,Weather View 32 v70,2013-06-08 04:00:00,
2013-06-07 21:02:00,81.0,55.7,29.75,SSE,162,0.0,7.0,42,0.00,,,0.00,0002,Weather View 32 v70,2013-06-08 04:02:00,
2013-06-07 21:10:00,79.7,55.8,29.75,SSW,207,0.0,6.0,44,0.00,,,0.00,0001,Weather View 32 v70,2013-06-08 04:10:00,
2013-06-07 21:15:00,78.7,55.5,29.75,SW,229,2.0,6.0,45,0.00,,,0.00,0001,Weather View 32 v70,2013-06-08 04:15:00,
2013-06-07 21:20:00,78.3,55.1,29.75,West,274,0.0,6.0,45,0.00,,,0.00,0001,Weather View 32 v70,2013-06-08 04:20:00,
2013-06-07 21:25:00,78.0,55.5,29.76,WSW,252,0.0,4.0,46,0.00,,,0.00,0001,Weather View 32 v70,2013-06-08 04:25:00,
2013-06-07 21:30:00,77.5,55.0,29.76,SW,229,3.0,4.0,46,0.00,,,0.00,0001,Weather View 32 v70,2013-06-08 04:30:00,
2013-06-07 21:35:00,77.3,54.8,29.76,SSW,207,0.0,4.0,46,0.00,,,0.00,0001,Weather View 32 v70,2013-06-08 04:35:00,
2013-06-07 21:40:00,77.1,54.7,29.76,SSW,207,0.0,4.0,46,0.00,,,0.00,0002,Weather View 32 v70,2013-06-08 04:40:00,
2013-06-07 21:45:00,76.9,55.1,29.76,East,94,0.0,4.0,47,0.00,,,0.00,0001,Weather View 32 v70,2013-06-08 04:45:00,
2013-06-07 21:50:00,76.5,54.7,29.76,SSW,207,0.0,4.0,47,0.00,,,0.00,0001,Weather View 32 v70,2013-06-08 04:50:00,
2013-06-07 21:55:00,76.1,54.3,29.76,SSW,207,0.0,4.0,47,0.00,,,0.00,0002,Weather View 32 v70,2013-06-08 04:55:00,
2013-06-07 22:00:00,75.7,54.0,29.76,SSW,207,0.0,3.0,47,0.00,,,0.00,0001,Weather View 32 v70,2013-06-08 05:00:00,
2013-06-07 22:03:00,75.7,54.0,29.76,SSW,207,0.0,3.0,47,0.00,,,0.00,0001,Weather View 32 v70,2013-06-08 05:03:00,
2013-06-07 22:10:00,74.8,53.2,29.76,SSE,162,0.0,3.0,47,0.00,,,0.00,0001,Weather View 32 v70,2013-06-08 05:10:00,
2013-06-07 22:20:00,74.5,51.1,29.77,WNW,297,0.0,3.0,44,0.00,,,0.00,0001,Weather View 32 v70,2013-06-08 05:20:00,
2013-06-07 22:25:00,74.4,51.0,29.76,SSE,162,0.0,3.0,44,0.00,,,0.00,0002,Weather View 32 v70,2013-06-08 05:25:00,
2013-06-07 22:30:00,74.1,51.3,29.76,West,274,0.0,3.0,45,0.00,,,0.00,0002,Weather View 32 v70,2013-06-08 05:30:00,
2013-06-07 22:35:00,74.0,51.2,29.76,SSW,207,0.0,1.0,45,0.00,,,0.00,0002,Weather View 32 v70,2013-06-08 05:35:00,
2013-06-07 22:40:00,73.8,51.1,29.76,SSW,207,0.0,1.0,45,0.00,,,0.00,0002,Weather View 32 v70,2013-06-08 05:40:00,
2013-06-07 22:45:00,73.6,50.9,29.76,SSW,207,0.0,1.0,45,0.00,,,0.00,0001,Weather View 32 v70,2013-06-08 05:45:00,
2013-06-07 22:55:00,73.3,50.0,29.76,SSW,207,0.0,1.0,44,0.00,,,0.00,0002,Weather View 32 v70,2013-06-08 05:55:00,
2013-06-07 23:00:00,73.1,49.8,29.76,West,274,0.0,1.0,44,0.00,,,0.00,0002,Weather View 32 v70,2013-06-08 06:00:00,
2013-06-07 23:05:00,72.9,49.6,29.76,West,274,0.0,1.0,44,0.00,,,0.00,0001,Weather View 32 v70,2013-06-08 06:05:00,
2013-06-07 23:10:00,72.7,49.5,29.75,West,274,0.0,0.0,44,0.00,,,0.00,0001,Weather View 32 v70,2013-06-08 06:10:00,
2013-06-07 23:15:00,72.4,49.2,29.75,South,184,0.0,0.0,44,0.00,,,0.00,0001,Weather View 32 v70,2013-06-08 06:15:00,
2013-06-07 23:20:00,72.2,49.0,29.76,WSW,252,0.0,0.0,44,0.00,,,0.00,0001,Weather View 32 v70,2013-06-08 06:20:00,
2013-06-07 23:30:00,72.9,49.6,29.76,West,274,1.0,4.0,44,0.00,,,0.00,0002,Weather View 32 v70,2013-06-08 06:30:00,
2013-06-07 23:35:00,73.0,49.1,29.75,WNW,297,1.0,4.0,43,0.00,,,0.00,0002,Weather View 32 v70,2013-06-08 06:35:00,
2013-06-07 23:40:00,73.0,49.1,29.75,West,274,0.0,4.0,43,0.00,,,0.00,0002,Weather View 32 v70,2013-06-08 06:40:00,
2013-06-07 23:45:00,72.8,49.6,29.75,NNE,27,0.0,4.0,44,0.00,,,0.00,0002,Weather View 32 v70,2013-06-08 06:45:00,
2013-06-07 23:55:00,71.7,48.6,29.75,SSE,162,1.0,4.0,44,0.00,,,0.00,0001,Weather View 32 v70,2013-06-08 06:55:00,